sensor_id;sensor_type;location;lat;lon;timestamp;P1;durP1;ratioP1;P2;durP2;ratioP2
1537;SDS011;12022;52.266;10.522;2023-03-15T00:00:53;2.63;;;2.63;;
1537;SDS011;12022;52.266;10.522;2023-03-15T00:03:21;3.60;;;3.60;;
1537;SDS011;12022;52.266;10.522;2023-03-15T00:05:50;3.13;;;3.13;;
1537;SDS011;12022;52.266;10.522;2023-03-15T00:08:20;2.57;;;2.57;;
1537;SDS011;12022;52.266;10.522;2023-03-15T00:10:47;2.63;;;2.63;;
1537;SDS011;12022;52.266;10.522;2023-03-15T00:13:14;4.20;;;4.20;;
1537;SDS011;12022;52.266;10.522;2023-03-15T00:15:48;2.50;;;2.50;;
1537;SDS011;12022;52.266;10.522;2023-03-15T00:18:19;3.40;;;3.40;;
1537;SDS011;12022;52.266;10.522;2023-03-15T00:20:46;3.23;;;3.23;;
1537;SDS011;12022;52.266;10.522;2023-03-15T00:23:14;2.63;;;2.63;;
1537;SDS011;12022;52.266;10.522;2023-03-15T00:25:45;4.00;;;4.00;;
1537;SDS011;12022;52.266;10.522;2023-03-15T00:28:13;3.00;;;3.00;;
1537;SDS011;12022;52.266;10.522;2023-03-15T00:30:40;2.63;;;2.63;;
1537;SDS011;12022;52.266;10.522;2023-03-15T00:33:09;2.70;;;2.70;;
1537;SDS011;12022;52.266;10.522;2023-03-15T00:35:39;3.00;;;3.00;;
1537;SDS011;12022;52.266;10.522;2023-03-15T00:38:08;2.40;;;2.40;;
1537;SDS011;12022;52.266;10.522;2023-03-15T00:40:36;1.80;;;1.80;;
1537;SDS011;12022;52.266;10.522;2023-03-15T00:43:03;2.17;;;2.17;;
1537;SDS011;12022;52.266;10.522;2023-03-15T00:45:31;1.67;;;1.67;;
1537;SDS011;12022;52.266;10.522;2023-03-15T00:47:58;4.07;;;4.07;;
1537;SDS011;12022;52.266;10.522;2023-03-15T00:50:25;2.87;;;2.87;;
1537;SDS011;12022;52.266;10.522;2023-03-15T00:52:52;3.23;;;3.23;;
1537;SDS011;12022;52.266;10.522;2023-03-15T00:55:19;2.30;;;2.30;;
1537;SDS011;12022;52.266;10.522;2023-03-15T00:57:47;2.20;;;2.20;;
1537;SDS011;12022;52.266;10.522;2023-03-15T01:00:16;4.10;;;4.10;;
1537;SDS011;12022;52.266;10.522;2023-03-15T01:02:53;3.00;;;3.00;;
1537;SDS011;12022;52.266;10.522;2023-03-15T01:05:20;2.90;;;2.90;;
1537;SDS011;12022;52.266;10.522;2023-03-15T01:07:48;2.00;;;2.00;;
1537;SDS011;12022;52.266;10.522;2023-03-15T01:10:17;2.67;;;2.67;;
1537;SDS011;12022;52.266;10.522;2023-03-15T01:12:44;3.10;;;3.10;;
1537;SDS011;12022;52.266;10.522;2023-03-15T01:15:12;2.63;;;2.63;;
1537;SDS011;12022;52.266;10.522;2023-03-15T01:17:40;3.20;;;3.20;;
1537;SDS011;12022;52.266;10.522;2023-03-15T01:20:08;3.07;;;3.07;;
1537;SDS011;12022;52.266;10.522;2023-03-15T01:22:37;3.43;;;3.43;;
1537;SDS011;12022;52.266;10.522;2023-03-15T01:25:04;3.00;;;3.00;;
1537;SDS011;12022;52.266;10.522;2023-03-15T01:27:31;2.80;;;2.80;;
1537;SDS011;12022;52.266;10.522;2023-03-15T01:29:58;2.97;;;2.97;;
1537;SDS011;12022;52.266;10.522;2023-03-15T01:32:25;3.90;;;3.90;;
1537;SDS011;12022;52.266;10.522;2023-03-15T01:34:52;3.50;;;3.50;;
1537;SDS011;12022;52.266;10.522;2023-03-15T01:37:19;3.60;;;3.60;;
1537;SDS011;12022;52.266;10.522;2023-03-15T01:39:50;3.87;;;3.87;;
1537;SDS011;12022;52.266;10.522;2023-03-15T01:42:17;3.03;;;3.03;;
1537;SDS011;12022;52.266;10.522;2023-03-15T01:44:48;1.50;;;1.50;;
1537;SDS011;12022;52.266;10.522;2023-03-15T01:47:20;2.47;;;2.47;;
1537;SDS011;12022;52.266;10.522;2023-03-15T01:49:53;3.70;;;3.70;;
1537;SDS011;12022;52.266;10.522;2023-03-15T01:52:38;2.53;;;2.53;;
1537;SDS011;12022;52.266;10.522;2023-03-15T01:55:09;3.90;;;3.90;;
1537;SDS011;12022;52.266;10.522;2023-03-15T01:57:49;3.30;;;3.30;;
1537;SDS011;12022;52.266;10.522;2023-03-15T02:00:21;6.17;;;6.07;;
1537;SDS011;12022;52.266;10.522;2023-03-15T02:02:50;2.27;;;2.27;;
1537;SDS011;12022;52.266;10.522;2023-03-15T02:05:44;4.20;;;4.20;;
1537;SDS011;12022;52.266;10.522;2023-03-15T02:08:14;4.43;;;4.43;;
1537;SDS011;12022;52.266;10.522;2023-03-15T02:10:44;4.13;;;4.13;;
1537;SDS011;12022;52.266;10.522;2023-03-15T02:13:20;3.23;;;3.23;;
1537;SDS011;12022;52.266;10.522;2023-03-15T02:15:50;3.47;;;3.47;;
1537;SDS011;12022;52.266;10.522;2023-03-15T02:18:19;3.77;;;3.77;;
1537;SDS011;12022;52.266;10.522;2023-03-15T02:23:31;3.93;;;3.93;;
1537;SDS011;12022;52.266;10.522;2023-03-15T02:28:47;4.53;;;4.53;;
1537;SDS011;12022;52.266;10.522;2023-03-15T02:31:14;4.10;;;4.10;;
1537;SDS011;12022;52.266;10.522;2023-03-15T02:33:43;4.17;;;4.17;;
1537;SDS011;12022;52.266;10.522;2023-03-15T02:36:19;3.60;;;3.60;;
1537;SDS011;12022;52.266;10.522;2023-03-15T02:38:51;3.57;;;3.57;;
1537;SDS011;12022;52.266;10.522;2023-03-15T02:41:20;3.27;;;3.27;;
1537;SDS011;12022;52.266;10.522;2023-03-15T02:43:54;4.10;;;4.10;;
1537;SDS011;12022;52.266;10.522;2023-03-15T02:46:27;5.97;;;5.87;;
1537;SDS011;12022;52.266;10.522;2023-03-15T02:48:54;4.40;;;4.40;;
1537;SDS011;12022;52.266;10.522;2023-03-15T02:51:22;3.57;;;3.57;;
1537;SDS011;12022;52.266;10.522;2023-03-15T02:53:52;4.40;;;4.40;;
1537;SDS011;12022;52.266;10.522;2023-03-15T02:56:19;5.13;;;5.13;;
1537;SDS011;12022;52.266;10.522;2023-03-15T02:58:47;4.93;;;4.93;;
1537;SDS011;12022;52.266;10.522;2023-03-15T03:01:14;4.60;;;4.60;;
1537;SDS011;12022;52.266;10.522;2023-03-15T03:03:43;4.50;;;4.50;;
1537;SDS011;12022;52.266;10.522;2023-03-15T03:06:11;6.67;;;6.57;;
1537;SDS011;12022;52.266;10.522;2023-03-15T03:08:39;6.37;;;6.27;;
1537;SDS011;12022;52.266;10.522;2023-03-15T03:11:07;6.40;;;6.30;;
1537;SDS011;12022;52.266;10.522;2023-03-15T03:13:34;9.93;;;9.83;;
1537;SDS011;12022;52.266;10.522;2023-03-15T03:16:00;4.40;;;4.40;;
1537;SDS011;12022;52.266;10.522;2023-03-15T03:18:28;3.43;;;3.43;;
1537;SDS011;12022;52.266;10.522;2023-03-15T03:20:55;2.90;;;2.90;;
1537;SDS011;12022;52.266;10.522;2023-03-15T03:23:24;4.23;;;4.23;;
1537;SDS011;12022;52.266;10.522;2023-03-15T03:25:52;3.00;;;3.00;;
1537;SDS011;12022;52.266;10.522;2023-03-15T03:28:20;3.33;;;3.33;;
1537;SDS011;12022;52.266;10.522;2023-03-15T03:30:49;3.40;;;3.40;;
1537;SDS011;12022;52.266;10.522;2023-03-15T03:33:21;3.07;;;3.07;;
1537;SDS011;12022;52.266;10.522;2023-03-15T03:35:48;2.37;;;2.37;;
1537;SDS011;12022;52.266;10.522;2023-03-15T03:38:15;3.20;;;3.20;;
1537;SDS011;12022;52.266;10.522;2023-03-15T03:40:42;3.83;;;3.83;;
1537;SDS011;12022;52.266;10.522;2023-03-15T03:43:11;4.50;;;4.50;;
1537;SDS011;12022;52.266;10.522;2023-03-15T03:45:37;2.97;;;2.97;;
1537;SDS011;12022;52.266;10.522;2023-03-15T03:48:04;4.33;;;4.33;;
1537;SDS011;12022;52.266;10.522;2023-03-15T03:50:31;3.60;;;3.60;;
1537;SDS011;12022;52.266;10.522;2023-03-15T03:52:58;2.83;;;2.83;;
1537;SDS011;12022;52.266;10.522;2023-03-15T03:55:25;3.30;;;3.30;;
1537;SDS011;12022;52.266;10.522;2023-03-15T03:57:52;4.20;;;4.20;;
1537;SDS011;12022;52.266;10.522;2023-03-15T04:00:19;3.73;;;3.73;;
1537;SDS011;12022;52.266;10.522;2023-03-15T04:02:46;1.97;;;1.97;;
1537;SDS011;12022;52.266;10.522;2023-03-15T04:05:13;2.83;;;2.83;;
1537;SDS011;12022;52.266;10.522;2023-03-15T04:07:40;3.00;;;3.00;;
1537;SDS011;12022;52.266;10.522;2023-03-15T04:10:07;3.53;;;3.53;;
1537;SDS011;12022;52.266;10.522;2023-03-15T04:12:40;3.73;;;3.73;;
1537;SDS011;12022;52.266;10.522;2023-03-15T04:15:09;2.63;;;2.63;;
1537;SDS011;12022;52.266;10.522;2023-03-15T04:17:39;4.50;;;4.50;;
1537;SDS011;12022;52.266;10.522;2023-03-15T04:20:06;6.00;;;5.90;;
1537;SDS011;12022;52.266;10.522;2023-03-15T04:22:37;2.37;;;2.37;;
1537;SDS011;12022;52.266;10.522;2023-03-15T04:25:05;3.87;;;3.87;;
1537;SDS011;12022;52.266;10.522;2023-03-15T04:27:32;3.13;;;3.13;;
1537;SDS011;12022;52.266;10.522;2023-03-15T04:29:59;4.10;;;4.10;;
1537;SDS011;12022;52.266;10.522;2023-03-15T04:32:30;3.77;;;3.77;;
1537;SDS011;12022;52.266;10.522;2023-03-15T04:34:57;3.40;;;3.40;;
1537;SDS011;12022;52.266;10.522;2023-03-15T04:37:24;4.03;;;4.03;;
1537;SDS011;12022;52.266;10.522;2023-03-15T04:39:51;3.97;;;3.97;;
1537;SDS011;12022;52.266;10.522;2023-03-15T04:42:18;4.53;;;4.53;;
1537;SDS011;12022;52.266;10.522;2023-03-15T04:44:45;3.57;;;3.57;;
1537;SDS011;12022;52.266;10.522;2023-03-15T04:47:12;4.73;;;4.73;;
1537;SDS011;12022;52.266;10.522;2023-03-15T04:49:39;3.27;;;3.27;;
1537;SDS011;12022;52.266;10.522;2023-03-15T04:52:06;4.03;;;4.03;;
1537;SDS011;12022;52.266;10.522;2023-03-15T04:54:33;3.13;;;3.13;;
1537;SDS011;12022;52.266;10.522;2023-03-15T04:57:00;3.33;;;3.33;;
1537;SDS011;12022;52.266;10.522;2023-03-15T04:59:27;5.53;;;5.43;;
1537;SDS011;12022;52.266;10.522;2023-03-15T05:01:54;4.37;;;4.37;;
1537;SDS011;12022;52.266;10.522;2023-03-15T05:04:21;5.70;;;5.60;;
1537;SDS011;12022;52.266;10.522;2023-03-15T05:06:48;5.83;;;5.73;;
1537;SDS011;12022;52.266;10.522;2023-03-15T05:09:15;6.53;;;6.43;;
1537;SDS011;12022;52.266;10.522;2023-03-15T05:11:44;8.23;;;8.13;;
1537;SDS011;12022;52.266;10.522;2023-03-15T05:14:12;6.60;;;6.50;;
1537;SDS011;12022;52.266;10.522;2023-03-15T05:16:39;5.70;;;5.60;;
1537;SDS011;12022;52.266;10.522;2023-03-15T05:19:06;5.50;;;5.40;;
1537;SDS011;12022;52.266;10.522;2023-03-15T05:21:33;6.80;;;6.70;;
1537;SDS011;12022;52.266;10.522;2023-03-15T05:24:00;3.97;;;3.97;;
1537;SDS011;12022;52.266;10.522;2023-03-15T05:26:27;4.10;;;4.10;;
1537;SDS011;12022;52.266;10.522;2023-03-15T05:28:54;4.50;;;4.50;;
1537;SDS011;12022;52.266;10.522;2023-03-15T05:31:23;4.67;;;4.67;;
1537;SDS011;12022;52.266;10.522;2023-03-15T05:33:50;3.70;;;3.70;;
1537;SDS011;12022;52.266;10.522;2023-03-15T05:36:19;4.30;;;4.30;;
1537;SDS011;12022;52.266;10.522;2023-03-15T05:38:47;3.93;;;3.93;;
1537;SDS011;12022;52.266;10.522;2023-03-15T05:41:14;6.43;;;6.33;;
1537;SDS011;12022;52.266;10.522;2023-03-15T05:43:43;7.10;;;7.00;;
1537;SDS011;12022;52.266;10.522;2023-03-15T05:46:10;3.43;;;3.43;;
1537;SDS011;12022;52.266;10.522;2023-03-15T05:48:37;4.37;;;4.37;;
1537;SDS011;12022;52.266;10.522;2023-03-15T05:51:04;4.10;;;4.10;;
1537;SDS011;12022;52.266;10.522;2023-03-15T05:53:31;5.50;;;5.40;;
1537;SDS011;12022;52.266;10.522;2023-03-15T05:55:58;3.93;;;3.93;;
1537;SDS011;12022;52.266;10.522;2023-03-15T05:58:26;3.90;;;3.90;;
1537;SDS011;12022;52.266;10.522;2023-03-15T06:00:53;6.50;;;6.40;;
1537;SDS011;12022;52.266;10.522;2023-03-15T06:03:20;4.60;;;4.60;;
1537;SDS011;12022;52.266;10.522;2023-03-15T06:05:47;5.20;;;5.20;;
1537;SDS011;12022;52.266;10.522;2023-03-15T06:08:14;9.50;;;9.40;;
1537;SDS011;12022;52.266;10.522;2023-03-15T06:10:41;5.30;;;5.30;;
1537;SDS011;12022;52.266;10.522;2023-03-15T06:13:08;6.30;;;6.20;;
1537;SDS011;12022;52.266;10.522;2023-03-15T06:15:35;6.03;;;5.93;;
1537;SDS011;12022;52.266;10.522;2023-03-15T06:18:02;7.00;;;6.90;;
1537;SDS011;12022;52.266;10.522;2023-03-15T06:20:30;11.53;;;11.33;;
1537;SDS011;12022;52.266;10.522;2023-03-15T06:22:57;6.30;;;6.20;;
1537;SDS011;12022;52.266;10.522;2023-03-15T06:25:24;6.27;;;6.17;;
1537;SDS011;12022;52.266;10.522;2023-03-15T06:27:51;7.50;;;7.40;;
1537;SDS011;12022;52.266;10.522;2023-03-15T06:30:18;5.70;;;5.60;;
1537;SDS011;12022;52.266;10.522;2023-03-15T06:32:45;7.23;;;7.13;;
1537;SDS011;12022;52.266;10.522;2023-03-15T06:35:12;4.43;;;4.43;;
1537;SDS011;12022;52.266;10.522;2023-03-15T06:37:39;5.30;;;5.30;;
1537;SDS011;12022;52.266;10.522;2023-03-15T06:40:07;5.80;;;5.70;;
1537;SDS011;12022;52.266;10.522;2023-03-15T06:42:36;7.40;;;7.30;;
1537;SDS011;12022;52.266;10.522;2023-03-15T06:45:05;5.80;;;5.70;;
1537;SDS011;12022;52.266;10.522;2023-03-15T06:47:33;7.10;;;7.00;;
1537;SDS011;12022;52.266;10.522;2023-03-15T06:50:00;7.17;;;7.07;;
1537;SDS011;12022;52.266;10.522;2023-03-15T06:52:28;7.40;;;7.30;;
1537;SDS011;12022;52.266;10.522;2023-03-15T06:54:55;6.50;;;6.40;;
1537;SDS011;12022;52.266;10.522;2023-03-15T06:57:22;8.33;;;8.23;;
1537;SDS011;12022;52.266;10.522;2023-03-15T06:59:49;6.27;;;6.17;;
1537;SDS011;12022;52.266;10.522;2023-03-15T07:02:17;6.20;;;6.10;;
1537;SDS011;12022;52.266;10.522;2023-03-15T07:04:44;7.80;;;7.70;;
1537;SDS011;12022;52.266;10.522;2023-03-15T07:07:11;6.57;;;6.47;;
1537;SDS011;12022;52.266;10.522;2023-03-15T07:09:39;7.13;;;7.03;;
1537;SDS011;12022;52.266;10.522;2023-03-15T07:12:06;7.63;;;7.53;;
1537;SDS011;12022;52.266;10.522;2023-03-15T07:14:33;8.00;;;7.90;;
1537;SDS011;12022;52.266;10.522;2023-03-15T07:17:00;5.17;;;5.13;;
1537;SDS011;12022;52.266;10.522;2023-03-15T07:19:27;5.07;;;5.07;;
1537;SDS011;12022;52.266;10.522;2023-03-15T07:21:54;5.27;;;5.17;;
1537;SDS011;12022;52.266;10.522;2023-03-15T07:24:21;7.57;;;7.47;;
1537;SDS011;12022;52.266;10.522;2023-03-15T07:26:48;8.13;;;8.03;;
1537;SDS011;12022;52.266;10.522;2023-03-15T07:29:19;7.07;;;6.97;;
1537;SDS011;12022;52.266;10.522;2023-03-15T07:31:47;7.10;;;7.00;;
1537;SDS011;12022;52.266;10.522;2023-03-15T07:34:14;6.87;;;6.77;;
1537;SDS011;12022;52.266;10.522;2023-03-15T07:36:41;9.70;;;9.60;;
1537;SDS011;12022;52.266;10.522;2023-03-15T07:39:08;8.37;;;8.27;;
1537;SDS011;12022;52.266;10.522;2023-03-15T07:41:35;4.50;;;4.50;;
1537;SDS011;12022;52.266;10.522;2023-03-15T07:44:02;5.40;;;5.30;;
1537;SDS011;12022;52.266;10.522;2023-03-15T07:46:29;4.63;;;4.63;;
1537;SDS011;12022;52.266;10.522;2023-03-15T07:48:56;5.83;;;5.73;;
1537;SDS011;12022;52.266;10.522;2023-03-15T07:51:23;6.23;;;6.13;;
1537;SDS011;12022;52.266;10.522;2023-03-15T07:53:50;4.53;;;4.53;;
1537;SDS011;12022;52.266;10.522;2023-03-15T07:56:17;4.50;;;4.50;;
1537;SDS011;12022;52.266;10.522;2023-03-15T07:58:45;7.90;;;7.80;;
1537;SDS011;12022;52.266;10.522;2023-03-15T08:01:12;5.67;;;5.57;;
1537;SDS011;12022;52.266;10.522;2023-03-15T08:03:39;6.17;;;6.07;;
1537;SDS011;12022;52.266;10.522;2023-03-15T08:06:06;5.00;;;5.00;;
1537;SDS011;12022;52.266;10.522;2023-03-15T08:08:33;6.87;;;6.77;;
1537;SDS011;12022;52.266;10.522;2023-03-15T08:11:02;6.63;;;6.53;;
1537;SDS011;12022;52.266;10.522;2023-03-15T08:13:30;5.17;;;5.10;;
1537;SDS011;12022;52.266;10.522;2023-03-15T08:15:57;7.67;;;7.57;;
1537;SDS011;12022;52.266;10.522;2023-03-15T08:18:24;8.13;;;8.03;;
1537;SDS011;12022;52.266;10.522;2023-03-15T08:20:54;6.50;;;6.40;;
1537;SDS011;12022;52.266;10.522;2023-03-15T08:23:22;6.23;;;6.13;;
1537;SDS011;12022;52.266;10.522;2023-03-15T08:25:49;4.60;;;4.60;;
1537;SDS011;12022;52.266;10.522;2023-03-15T08:28:16;4.43;;;4.43;;
1537;SDS011;12022;52.266;10.522;2023-03-15T08:30:43;5.87;;;5.77;;
1537;SDS011;12022;52.266;10.522;2023-03-15T08:33:10;6.70;;;6.60;;
1537;SDS011;12022;52.266;10.522;2023-03-15T08:35:38;8.00;;;7.90;;
1537;SDS011;12022;52.266;10.522;2023-03-15T08:38:06;7.13;;;7.03;;
1537;SDS011;12022;52.266;10.522;2023-03-15T08:40:34;6.43;;;6.33;;
1537;SDS011;12022;52.266;10.522;2023-03-15T08:43:05;6.50;;;6.40;;
1537;SDS011;12022;52.266;10.522;2023-03-15T08:45:32;7.53;;;7.43;;
1537;SDS011;12022;52.266;10.522;2023-03-15T08:48:19;6.43;;;6.33;;
1537;SDS011;12022;52.266;10.522;2023-03-15T08:50:46;5.13;;;5.10;;
1537;SDS011;12022;52.266;10.522;2023-03-15T08:53:13;6.93;;;6.83;;
1537;SDS011;12022;52.266;10.522;2023-03-15T08:55:40;7.17;;;7.07;;
1537;SDS011;12022;52.266;10.522;2023-03-15T08:58:07;6.87;;;6.77;;
1537;SDS011;12022;52.266;10.522;2023-03-15T09:00:34;7.50;;;7.40;;
1537;SDS011;12022;52.266;10.522;2023-03-15T09:03:02;8.50;;;8.40;;
1537;SDS011;12022;52.266;10.522;2023-03-15T09:05:29;8.77;;;8.67;;
1537;SDS011;12022;52.266;10.522;2023-03-15T09:07:57;6.80;;;6.70;;
1537;SDS011;12022;52.266;10.522;2023-03-15T09:10:25;6.37;;;6.27;;
1537;SDS011;12022;52.266;10.522;2023-03-15T09:12:52;7.50;;;7.40;;
1537;SDS011;12022;52.266;10.522;2023-03-15T09:15:19;6.50;;;6.40;;
1537;SDS011;12022;52.266;10.522;2023-03-15T09:17:48;7.00;;;6.90;;
1537;SDS011;12022;52.266;10.522;2023-03-15T09:20:17;6.67;;;6.57;;
1537;SDS011;12022;52.266;10.522;2023-03-15T09:22:51;6.50;;;6.40;;
1537;SDS011;12022;52.266;10.522;2023-03-15T09:25:20;7.10;;;7.00;;
1537;SDS011;12022;52.266;10.522;2023-03-15T09:27:48;5.87;;;5.77;;
1537;SDS011;12022;52.266;10.522;2023-03-15T09:30:16;8.13;;;8.03;;
1537;SDS011;12022;52.266;10.522;2023-03-15T09:32:43;7.33;;;7.23;;
1537;SDS011;12022;52.266;10.522;2023-03-15T09:35:12;8.33;;;8.23;;
1537;SDS011;12022;52.266;10.522;2023-03-15T09:37:41;9.20;;;9.10;;
1537;SDS011;12022;52.266;10.522;2023-03-15T09:40:16;10.00;;;9.90;;
1537;SDS011;12022;52.266;10.522;2023-03-15T09:48:24;8.93;;;8.83;;
1537;SDS011;12022;52.266;10.522;2023-03-15T09:51:12;9.63;;;9.53;;
1537;SDS011;12022;52.266;10.522;2023-03-15T09:53:49;7.20;;;7.10;;
1537;SDS011;12022;52.266;10.522;2023-03-15T09:56:26;9.30;;;9.20;;
1537;SDS011;12022;52.266;10.522;2023-03-15T09:58:59;9.53;;;9.43;;
1537;SDS011;12022;52.266;10.522;2023-03-15T10:01:28;7.37;;;7.27;;
1537;SDS011;12022;52.266;10.522;2023-03-15T10:04:09;9.03;;;8.93;;
1537;SDS011;12022;52.266;10.522;2023-03-15T10:06:50;7.53;;;7.43;;
1537;SDS011;12022;52.266;10.522;2023-03-15T10:09:40;7.10;;;7.00;;
1537;SDS011;12022;52.266;10.522;2023-03-15T10:15:42;7.40;;;7.30;;
1537;SDS011;12022;52.266;10.522;2023-03-15T10:21:10;8.03;;;7.93;;
1537;SDS011;12022;52.266;10.522;2023-03-15T10:26:33;6.43;;;6.33;;
1537;SDS011;12022;52.266;10.522;2023-03-15T10:29:13;8.90;;;8.80;;
1537;SDS011;12022;52.266;10.522;2023-03-15T10:31:43;6.83;;;6.73;;
1537;SDS011;12022;52.266;10.522;2023-03-15T10:34:28;7.47;;;7.37;;
1537;SDS011;12022;52.266;10.522;2023-03-15T10:37:02;5.63;;;5.53;;
1537;SDS011;12022;52.266;10.522;2023-03-15T10:39:31;6.73;;;6.63;;
1537;SDS011;12022;52.266;10.522;2023-03-15T10:41:58;8.37;;;8.27;;
1537;SDS011;12022;52.266;10.522;2023-03-15T10:44:27;7.70;;;7.60;;
1537;SDS011;12022;52.266;10.522;2023-03-15T10:47:02;7.07;;;6.97;;
1537;SDS011;12022;52.266;10.522;2023-03-15T10:53:15;14.67;;;14.40;;
1537;SDS011;12022;52.266;10.522;2023-03-15T10:55:48;8.03;;;7.93;;
1537;SDS011;12022;52.266;10.522;2023-03-15T10:58:40;10.90;;;10.70;;
1537;SDS011;12022;52.266;10.522;2023-03-15T11:01:27;8.03;;;7.93;;
1537;SDS011;12022;52.266;10.522;2023-03-15T11:04:18;9.17;;;9.07;;
1537;SDS011;12022;52.266;10.522;2023-03-15T11:07:51;5.80;;;5.70;;
1537;SDS011;12022;52.266;10.522;2023-03-15T11:10:25;7.20;;;7.10;;
1537;SDS011;12022;52.266;10.522;2023-03-15T11:18:42;7.67;;;7.57;;
1537;SDS011;12022;52.266;10.522;2023-03-15T11:21:46;6.57;;;6.47;;
1537;SDS011;12022;52.266;10.522;2023-03-15T11:24:23;9.50;;;9.40;;
1537;SDS011;12022;52.266;10.522;2023-03-15T11:26:54;6.73;;;6.63;;
1537;SDS011;12022;52.266;10.522;2023-03-15T11:29:31;5.10;;;5.07;;
1537;SDS011;12022;52.266;10.522;2023-03-15T11:32:11;8.67;;;8.57;;
1537;SDS011;12022;52.266;10.522;2023-03-15T11:38:39;5.10;;;5.10;;
1537;SDS011;12022;52.266;10.522;2023-03-15T11:41:34;6.20;;;6.10;;
1537;SDS011;12022;52.266;10.522;2023-03-15T11:44:39;12.30;;;12.10;;
1537;SDS011;12022;52.266;10.522;2023-03-15T11:47:53;7.57;;;7.47;;
1537;SDS011;12022;52.266;10.522;2023-03-15T11:50:24;7.93;;;7.83;;
1537;SDS011;12022;52.266;10.522;2023-03-15T11:52:56;8.07;;;7.97;;
1537;SDS011;12022;52.266;10.522;2023-03-15T11:55:29;9.03;;;8.93;;
1537;SDS011;12022;52.266;10.522;2023-03-15T11:58:25;4.60;;;4.60;;
1537;SDS011;12022;52.266;10.522;2023-03-15T12:01:04;6.07;;;5.97;;
1537;SDS011;12022;52.266;10.522;2023-03-15T12:07:26;6.90;;;6.80;;
1537;SDS011;12022;52.266;10.522;2023-03-15T12:10:17;5.90;;;5.80;;
1537;SDS011;12022;52.266;10.522;2023-03-15T12:13:15;5.70;;;5.60;;
1537;SDS011;12022;52.266;10.522;2023-03-15T12:15:47;5.40;;;5.30;;
1537;SDS011;12022;52.266;10.522;2023-03-15T12:18:17;6.30;;;6.20;;
1537;SDS011;12022;52.266;10.522;2023-03-15T12:20:55;6.33;;;6.23;;
1537;SDS011;12022;52.266;10.522;2023-03-15T12:23:44;7.30;;;7.20;;
1537;SDS011;12022;52.266;10.522;2023-03-15T12:29:14;7.10;;;7.00;;
1537;SDS011;12022;52.266;10.522;2023-03-15T12:31:50;5.73;;;5.63;;
1537;SDS011;12022;52.266;10.522;2023-03-15T12:34:44;7.07;;;6.97;;
1537;SDS011;12022;52.266;10.522;2023-03-15T12:37:26;6.53;;;6.43;;
1537;SDS011;12022;52.266;10.522;2023-03-15T12:40:33;5.90;;;5.80;;
1537;SDS011;12022;52.266;10.522;2023-03-15T12:43:05;5.70;;;5.60;;
1537;SDS011;12022;52.266;10.522;2023-03-15T12:45:39;5.90;;;5.80;;
1537;SDS011;12022;52.266;10.522;2023-03-15T12:53:22;6.90;;;6.80;;
1537;SDS011;12022;52.266;10.522;2023-03-15T13:01:59;7.13;;;7.03;;
1537;SDS011;12022;52.266;10.522;2023-03-15T13:04:31;6.17;;;6.07;;
1537;SDS011;12022;52.266;10.522;2023-03-15T13:07:16;10.10;;;10.00;;
1537;SDS011;12022;52.266;10.522;2023-03-15T13:10:21;7.50;;;7.40;;
1537;SDS011;12022;52.266;10.522;2023-03-15T13:13:08;8.43;;;8.33;;
1537;SDS011;12022;52.266;10.522;2023-03-15T13:18:49;8.50;;;8.40;;
1537;SDS011;12022;52.266;10.522;2023-03-15T13:21:32;8.13;;;8.03;;
1537;SDS011;12022;52.266;10.522;2023-03-15T13:24:10;5.47;;;5.37;;
1537;SDS011;12022;52.266;10.522;2023-03-15T13:27:01;7.60;;;7.50;;
1537;SDS011;12022;52.266;10.522;2023-03-15T13:29:52;5.87;;;5.77;;
1537;SDS011;12022;52.266;10.522;2023-03-15T13:32:23;6.00;;;5.90;;
1537;SDS011;12022;52.266;10.522;2023-03-15T13:34:52;7.30;;;7.20;;
1537;SDS011;12022;52.266;10.522;2023-03-15T13:37:25;5.77;;;5.67;;
1537;SDS011;12022;52.266;10.522;2023-03-15T13:40:04;5.07;;;5.07;;
1537;SDS011;12022;52.266;10.522;2023-03-15T13:42:42;4.93;;;4.93;;
1537;SDS011;12022;52.266;10.522;2023-03-15T13:45:12;4.83;;;4.83;;
1537;SDS011;12022;52.266;10.522;2023-03-15T13:47:42;4.30;;;4.30;;
1537;SDS011;12022;52.266;10.522;2023-03-15T13:50:12;5.80;;;5.70;;
1537;SDS011;12022;52.266;10.522;2023-03-15T13:52:45;6.20;;;6.10;;
1537;SDS011;12022;52.266;10.522;2023-03-15T13:55:14;5.73;;;5.63;;
1537;SDS011;12022;52.266;10.522;2023-03-15T13:57:48;3.20;;;3.20;;
1537;SDS011;12022;52.266;10.522;2023-03-15T14:00:22;4.40;;;4.40;;
1537;SDS011;12022;52.266;10.522;2023-03-15T14:05:24;4.50;;;4.50;;
1537;SDS011;12022;52.266;10.522;2023-03-15T14:08:03;5.27;;;5.17;;
1537;SDS011;12022;52.266;10.522;2023-03-15T14:10:34;4.70;;;4.70;;
1537;SDS011;12022;52.266;10.522;2023-03-15T14:16:11;5.90;;;5.80;;
1537;SDS011;12022;52.266;10.522;2023-03-15T14:18:41;6.10;;;6.00;;
1537;SDS011;12022;52.266;10.522;2023-03-15T14:21:15;3.30;;;3.30;;
1537;SDS011;12022;52.266;10.522;2023-03-15T14:23:46;4.07;;;4.07;;
1537;SDS011;12022;52.266;10.522;2023-03-15T14:26:22;4.53;;;4.53;;
1537;SDS011;12022;52.266;10.522;2023-03-15T14:28:56;5.07;;;4.97;;
1537;SDS011;12022;52.266;10.522;2023-03-15T14:31:29;4.87;;;4.87;;
1537;SDS011;12022;52.266;10.522;2023-03-15T14:40:10;4.90;;;4.90;;
1537;SDS011;12022;52.266;10.522;2023-03-15T14:42:42;3.37;;;3.37;;
1537;SDS011;12022;52.266;10.522;2023-03-15T14:45:09;3.70;;;3.70;;
1537;SDS011;12022;52.266;10.522;2023-03-15T14:47:38;2.83;;;2.83;;
1537;SDS011;12022;52.266;10.522;2023-03-15T14:53:25;4.93;;;4.93;;
1537;SDS011;12022;52.266;10.522;2023-03-15T14:56:02;4.00;;;4.00;;
1537;SDS011;12022;52.266;10.522;2023-03-15T14:58:30;2.97;;;2.97;;
1537;SDS011;12022;52.266;10.522;2023-03-15T15:00:58;6.30;;;6.23;;
1537;SDS011;12022;52.266;10.522;2023-03-15T15:03:31;7.80;;;7.70;;
1537;SDS011;12022;52.266;10.522;2023-03-15T15:06:07;3.97;;;3.97;;
1537;SDS011;12022;52.266;10.522;2023-03-15T15:08:38;2.97;;;2.97;;
1537;SDS011;12022;52.266;10.522;2023-03-15T15:11:12;3.57;;;3.57;;
1537;SDS011;12022;52.266;10.522;2023-03-15T15:13:48;4.50;;;4.50;;
1537;SDS011;12022;52.266;10.522;2023-03-15T15:16:15;3.90;;;3.90;;
1537;SDS011;12022;52.266;10.522;2023-03-15T15:18:43;3.20;;;3.20;;
1537;SDS011;12022;52.266;10.522;2023-03-15T15:21:12;2.90;;;2.90;;
1537;SDS011;12022;52.266;10.522;2023-03-15T15:23:40;3.93;;;3.93;;
1537;SDS011;12022;52.266;10.522;2023-03-15T15:26:24;4.30;;;4.30;;
1537;SDS011;12022;52.266;10.522;2023-03-15T15:28:53;3.67;;;3.67;;
1537;SDS011;12022;52.266;10.522;2023-03-15T15:31:21;4.87;;;4.87;;
1537;SDS011;12022;52.266;10.522;2023-03-15T15:33:51;3.90;;;3.90;;
1537;SDS011;12022;52.266;10.522;2023-03-15T15:36:23;4.63;;;4.63;;
1537;SDS011;12022;52.266;10.522;2023-03-15T15:38:52;6.67;;;6.57;;
1537;SDS011;12022;52.266;10.522;2023-03-15T15:41:24;8.00;;;7.90;;
1537;SDS011;12022;52.266;10.522;2023-03-15T15:43:53;4.80;;;4.80;;
1537;SDS011;12022;52.266;10.522;2023-03-15T15:46:20;4.87;;;4.87;;
1537;SDS011;12022;52.266;10.522;2023-03-15T15:48:50;4.53;;;4.53;;
1537;SDS011;12022;52.266;10.522;2023-03-15T15:51:26;5.67;;;5.57;;
1537;SDS011;12022;52.266;10.522;2023-03-15T15:54:04;4.43;;;4.43;;
1537;SDS011;12022;52.266;10.522;2023-03-15T15:56:36;4.10;;;4.10;;
1537;SDS011;12022;52.266;10.522;2023-03-15T15:59:11;5.07;;;5.07;;
1537;SDS011;12022;52.266;10.522;2023-03-15T16:01:43;4.07;;;4.07;;
1537;SDS011;12022;52.266;10.522;2023-03-15T16:04:26;4.80;;;4.80;;
1537;SDS011;12022;52.266;10.522;2023-03-15T16:06:57;3.60;;;3.60;;
1537;SDS011;12022;52.266;10.522;2023-03-15T16:09:27;5.53;;;5.43;;
1537;SDS011;12022;52.266;10.522;2023-03-15T16:11:59;3.10;;;3.10;;
1537;SDS011;12022;52.266;10.522;2023-03-15T16:14:26;3.30;;;3.30;;
1537;SDS011;12022;52.266;10.522;2023-03-15T16:16:55;2.93;;;2.93;;
1537;SDS011;12022;52.266;10.522;2023-03-15T16:19:22;4.63;;;4.63;;
1537;SDS011;12022;52.266;10.522;2023-03-15T16:21:52;1.93;;;1.93;;